Terminal Aerodrome Forecast
Issued by NWS Melbourne, FL

Home | Current Version | Previous Version | Text Only | Print | Product List | Glossary On
Versions: 1 2 3 4 5 6 7 8 9 10 11 12
061
FTUS42 KMLB 261727
TAFDAB
TAF
KDAB 261727Z 2618/2718 06006KT P6SM VCSH SCT030 SCT100
     FM262100 10008KT P6SM VCTS SCT035CB BKN200
     FM270000 VRB03KT P6SM FEW030 SCT120 BKN250
     FM271400 25005KT P6SM SCT025=

USA.gov is the U.S. government's official web portal to all federal, state and local government web resources and services.